Time;durP1;ratioP1;P1;durP2;ratioP2;P2;SDS_P1;SDS_P2;PMS_P1;PMS_P2;Temp;Humidity;BMP_temperature;BMP_pressure;BME280_temperature;BME280_humidity;BME280_pressure;Samples;Min_cycle;Max_cycle;Signal;HPM_P1;HPM_P2
2022/08/14 00:02:04;;;;;;;;;;;23.00;73.70;;;;;;5077594;28;19931;-91
2022/08/14 00:04:33;;;;;;;;;;;22.90;74.10;;;;;;5121625;27;19924;-91
2022/08/14 00:07:12;;;;;;;;;;;22.90;73.70;;;;;;5118934;27;19927;-90
2022/08/14 00:09:41;;;;;;;;;;;22.90;74.60;;;;;;5106393;28;19924;-91
2022/08/14 00:12:31;;;;;;;;;;;22.90;74.60;;;;;;5105654;28;19928;-92
2022/08/14 00:15:17;;;;;;;;;;;22.90;74.70;;;;;;5097922;27;19930;-93
2022/08/14 00:17:54;;;;;;;;;;;22.80;75.90;;;;;;5090958;27;20286;-92
2022/08/14 00:20:24;;;;;;;;;;;22.80;75.90;;;;;;5091520;27;19931;-92
2022/08/14 00:23:03;;;;;;;;;;;22.70;76.40;;;;;;5128191;27;19927;-92
2022/08/14 00:25:39;;;;;;;;;;;22.60;77.20;;;;;;5108044;27;19939;-92
2022/08/14 00:28:10;;;;;;;;;;;22.60;78.30;;;;;;5137181;27;20265;-92
2022/08/14 00:30:45;;;;;;;;;;;22.50;77.40;;;;;;5118052;27;19938;-91
2022/08/14 00:33:13;;;;;;;;;;;22.50;77.90;;;;;;5089298;27;19931;-92
2022/08/14 00:35:44;;;;;;;;;;;22.40;78.00;;;;;;5105054;27;19934;-93
2022/08/14 00:38:31;;;;;;;;;;;22.40;78.50;;;;;;5075517;28;19931;-93
2022/08/14 00:41:05;;;;;;;;;;;22.40;79.10;;;;;;5080652;28;19924;-93
2022/08/14 00:43:37;;;;;;;;;;;22.30;79.10;;;;;;5063506;28;19924;-92
2022/08/14 00:46:12;;;;;;;;;;;22.30;79.20;;;;;;5063487;28;19924;-93
2022/08/14 00:48:59;;;;;;;;;;;22.30;79.90;;;;;;5067277;28;19935;-92
2022/08/14 00:51:31;;;;;;;;;;;22.20;80.70;;;;;;5080613;28;19994;-92
2022/08/14 00:54:05;;;;;;;;;;;22.20;81.40;;;;;;5065154;28;19928;-92
2022/08/14 00:56:50;;;;;;;;;;;22.20;81.20;;;;;;5061132;28;20371;-93
2022/08/14 00:59:23;;;;;;;;;;;22.20;81.50;;;;;;5046625;28;19924;-93
2022/08/14 01:01:52;;;;;;;;;;;22.10;82.30;;;;;;5096793;28;19935;-93
2022/08/14 01:04:25;;;;;;;;;;;22.10;82.50;;;;;;5080127;28;19935;-92
2022/08/14 01:07:18;;;;;;;;;;;22.10;82.00;;;;;;5081066;28;19938;-93
2022/08/14 01:09:50;;;;;;;;;;;22.00;82.40;;;;;;5080357;28;19924;-92
2022/08/14 01:12:18;;;;;;;;;;;22.00;83.50;;;;;;5063939;28;19925;-93
2022/08/14 01:14:59;;;;;;;;;;;22.00;83.90;;;;;;5066691;28;19924;-92
2022/08/14 01:23:09;;;;;;;;;;;21.90;84.90;;;;;;5072871;28;19924;-93
2022/08/14 01:25:47;;;;;;;;;;;21.80;85.20;;;;;;5058953;28;19928;-92
2022/08/14 01:28:25;;;;;;;;;;;21.60;85.70;;;;;;5058132;28;19924;-92
2022/08/14 01:31:18;;;;;;;;;;;22.00;87.10;;;;;;5087267;28;19924;-92
2022/08/14 01:33:48;;;;;;;;;;;21.70;86.00;;;;;;5056158;28;19931;-92
2022/08/14 01:36:41;;;;;;;;;;;22.30;87.50;;;;;;5077439;28;19928;-93
2022/08/14 01:39:15;;;;;;;;;;;20.40;88.80;;;;;;5105920;28;19924;-92
2022/08/14 01:41:55;;;;;;;;;;;21.20;88.40;;;;;;5075005;28;19924;-93
2022/08/14 01:44:28;;;;;;;;;;;23.60;87.40;;;;;;5075208;28;19924;-93
2022/08/14 01:47:02;;;;;;;;;;;21.40;88.50;;;;;;5073894;28;19924;-93
2022/08/14 01:49:40;;;;;;;;;;;22.10;89.20;;;;;;5073917;28;19924;-92
2022/08/14 01:52:35;;;;;;;;;;;22.10;88.10;;;;;;5073451;28;19924;-92
2022/08/14 01:55:30;;;;;;;;;;;21.30;87.50;;;;;;5080978;28;19932;-91
2022/08/14 01:58:00;;;;;;;;;;;23.40;88.90;;;;;;5066748;28;19912;-92
2022/08/14 02:00:53;;;;;;;;;;;21.20;90.10;;;;;;5096859;28;19967;-93
2022/08/14 02:03:39;;;;;;;;;;;20.30;88.20;;;;;;5101311;27;19931;-93
2022/08/14 02:06:25;;;;;;;;;;;21.30;89.20;;;;;;5113797;27;19924;-92
2022/08/14 02:09:02;;;;;;;;;;;21.00;91.00;;;;;;5093097;28;19924;-92
2022/08/14 02:11:47;;;;;;;;;;;19.70;89.40;;;;;;5059730;28;19935;-93
2022/08/14 02:14:28;;;;;;;;;;;20.20;89.50;;;;;;5082668;28;19924;-92
2022/08/14 02:17:00;;;;;;;;;;;21.00;89.80;;;;;;5094449;28;19930;-92
2022/08/14 02:19:34;;;;;;;;;;;20.80;90.00;;;;;;5095509;28;19938;-92
2022/08/14 02:22:05;;;;;;;;;;;22.00;90.50;;;;;;5060444;28;19923;-92
2022/08/14 02:24:55;;;;;;;;;;;21.50;91.60;;;;;;5128088;28;19928;-91
2022/08/14 02:27:30;;;;;;;;;;;19.60;91.60;;;;;;5092747;28;19935;-92
2022/08/14 02:30:20;;;;;;;;;;;20.70;90.70;;;;;;5078384;28;19946;-92
2022/08/14 02:32:49;;;;;;;;;;;18.80;91.30;;;;;;5093364;28;19924;-92
2022/08/14 02:35:22;;;;;;;;;;;20.60;92.00;;;;;;5099502;28;19927;-92
2022/08/14 02:38:00;;;;;;;;;;;20.50;91.10;;;;;;5080463;28;19912;-91
2022/08/14 02:40:33;;;;;;;;;;;20.50;91.20;;;;;;5098727;28;19912;-91
2022/08/14 02:43:05;;;;;;;;;;;20.40;91.90;;;;;;5083844;28;19931;-92
2022/08/14 02:45:39;;;;;;;;;;;20.40;92.20;;;;;;5115820;28;19924;-94
2022/08/14 02:48:16;;;;;;;;;;;20.30;92.20;;;;;;5091576;28;19934;-92
2022/08/14 02:51:09;;;;;;;;;;;20.30;92.20;;;;;;5091466;28;19931;-92
2022/08/14 02:53:43;;;;;;;;;;;20.20;92.50;;;;;;5109004;28;19924;-90
2022/08/14 02:56:15;;;;;;;;;;;20.20;92.40;;;;;;5088589;28;19924;-92
2022/08/14 02:59:05;;;;;;;;;;;20.50;92.60;;;;;;5059876;28;19944;-92
2022/08/14 03:01:34;;;;;;;;;;;20.40;93.00;;;;;;5073713;28;19924;-91
2022/08/14 03:04:20;;;;;;;;;;;18.60;93.10;;;;;;5079715;28;19928;-92
2022/08/14 03:06:53;;;;;;;;;;;21.40;93.40;;;;;;5092230;28;19931;-91
2022/08/14 03:09:38;;;;;;;;;;;20.90;93.70;;;;;;5067199;28;19924;-92
2022/08/14 03:12:26;;;;;;;;;;;20.00;93.30;;;;;;5079348;28;19924;-91
2022/08/14 03:15:12;;;;;;;;;;;19.90;93.90;;;;;;5090689;28;20093;-93
2022/08/14 03:17:44;;;;;;;;;;;19.90;93.30;;;;;;5087808;28;19924;-92
2022/08/14 03:20:27;;;;;;;;;;;19.90;93.60;;;;;;5087861;28;19942;-91
2022/08/14 03:23:01;;;;;;;;;;;19.90;93.90;;;;;;5087884;28;19942;-91
2022/08/14 03:25:32;;;;;;;;;;;20.10;93.70;;;;;;5088716;28;19924;-92
2022/08/14 03:28:06;;;;;;;;;;;20.30;94.20;;;;;;5088563;28;19924;-92
2022/08/14 03:30:44;;;;;;;;;;;19.80;93.80;;;;;;5074652;28;19924;-92
2022/08/14 03:33:13;;;;;;;;;;;19.70;93.90;;;;;;5088582;28;19931;-92
2022/08/14 03:35:42;;;;;;;;;;;19.70;94.50;;;;;;5074407;28;19924;-92
2022/08/14 03:38:32;;;;;;;;;;;19.60;94.50;;;;;;5077408;28;19924;-92
2022/08/14 03:41:23;;;;;;;;;;;21.30;94.90;;;;;;5047424;28;19931;-91
2022/08/14 03:43:56;;;;;;;;;;;19.40;94.60;;;;;;5079898;28;20010;-91
2022/08/14 03:46:50;;;;;;;;;;;19.40;94.80;;;;;;5076476;28;19931;-91
2022/08/14 03:49:31;;;;;;;;;;;19.40;95.50;;;;;;5092187;28;20016;-91
2022/08/14 03:52:04;;;;;;;;;;;19.40;94.70;;;;;;5088498;28;19932;-91
2022/08/14 03:54:55;;;;;;;;;;;19.30;94.80;;;;;;5103256;28;19931;-91
2022/08/14 03:57:24;;;;;;;;;;;19.30;95.20;;;;;;5095027;28;19928;-91
2022/08/14 03:59:56;;;;;;;;;;;19.30;95.00;;;;;;5095081;28;19934;-91
2022/08/14 04:02:25;;;;;;;;;;;19.20;95.30;;;;;;5096551;28;20347;-91
2022/08/14 04:05:05;;;;;;;;;;;19.10;95.30;;;;;;5116463;28;19911;-91
2022/08/14 04:07:42;;;;;;;;;;;18.70;95.60;;;;;;5115538;28;19912;-91
2022/08/14 04:10:30;;;;;;;;;;;17.00;95.80;;;;;;5077323;28;20010;-91
2022/08/14 04:13:00;;;;;;;;;;;19.00;95.60;;;;;;5106919;28;19928;-92
2022/08/14 04:15:31;;;;;;;;;;;19.00;95.50;;;;;;5106480;27;19950;-92
2022/08/14 04:18:19;;;;;;;;;;;18.80;95.50;;;;;;5113639;27;19994;-92
2022/08/14 04:20:48;;;;;;;;;;;19.10;96.10;;;;;;5096242;27;19923;-91
2022/08/14 04:23:23;;;;;;;;;;;18.90;96.00;;;;;;5098360;27;19923;-91
2022/08/14 04:26:00;;;;;;;;;;;19.10;96.10;;;;;;5113581;27;20259;-92
2022/08/14 04:28:29;;;;;;;;;;;18.80;96.80;;;;;;5113434;27;19924;-91
2022/08/14 04:31:19;;;;;;;;;;;18.80;96.10;;;;;;5114004;27;19924;-92
2022/08/14 04:34:07;;;;;;;;;;;20.20;96.70;;;;;;5113818;27;19927;-91
2022/08/14 04:45:24;;;;;;;;;;;18.40;96.40;;;;;;5093301;28;19930;-91
2022/08/14 04:48:14;;;;;;;;;;;18.70;96.70;;;;;;5083000;28;19935;-92
2022/08/14 04:51:04;;;;;;;;;;;18.60;96.50;;;;;;5078923;28;19924;-91
2022/08/14 04:53:35;;;;;;;;;;;18.80;96.70;;;;;;5084525;28;19919;-91
2022/08/14 04:56:15;;;;;;;;;;;17.80;96.40;;;;;;5080458;28;19925;-91
2022/08/14 04:59:04;;;;;;;;;;;18.50;96.50;;;;;;5075368;28;19924;-91
2022/08/14 05:01:44;;;;;;;;;;;18.50;96.70;;;;;;5072962;28;19924;-92
2022/08/14 05:04:19;;;;;;;;;;;18.50;97.90;;;;;;5118739;28;19924;-92
2022/08/14 05:06:52;;;;;;;;;;;18.50;97.30;;;;;;5108881;28;19924;-91
2022/08/14 05:09:23;;;;;;;;;;;18.50;97.00;;;;;;5092003;28;20378;-91
2022/08/14 05:12:00;;;;;;;;;;;17.90;97.10;;;;;;5088064;28;19931;-92
2022/08/14 05:14:49;;;;;;;;;;;18.00;97.20;;;;;;5071496;28;20354;-91
2022/08/14 05:17:24;;;;;;;;;;;18.40;97.80;;;;;;5053636;28;19936;-92
2022/08/14 05:20:11;;;;;;;;;;;18.50;97.30;;;;;;5042563;28;19925;-91
2022/08/14 05:22:58;;;;;;;;;;;18.40;97.70;;;;;;5054391;28;19924;-92
2022/08/14 05:25:29;;;;;;;;;;;18.50;97.90;;;;;;5068041;28;19924;-91
2022/08/14 05:28:06;;;;;;;;;;;18.40;97.40;;;;;;5035970;28;20340;-92
2022/08/14 05:30:45;;;;;;;;;;;18.60;97.30;;;;;;5084035;28;20315;-92
2022/08/14 05:33:15;;;;;;;;;;;19.30;97.60;;;;;;5051627;28;20314;-92
2022/08/14 05:35:46;;;;;;;;;;;18.60;97.70;;;;;;5053037;28;19924;-91
2022/08/14 05:38:17;;;;;;;;;;;18.70;97.30;;;;;;5096690;28;19928;-92
2022/08/14 05:40:58;;;;;;;;;;;19.00;97.40;;;;;;5084410;28;19925;-92
2022/08/14 05:43:27;;;;;;;;;;;18.00;97.20;;;;;;5076293;28;19924;-91
2022/08/14 05:46:12;;;;;;;;;;;19.60;97.50;;;;;;5075520;28;19932;-91
2022/08/14 05:48:42;;;;;;;;;;;18.90;97.40;;;;;;5091084;28;19942;-91
2022/08/14 05:51:12;;;;;;;;;;;19.20;97.60;;;;;;5078760;28;19912;-92
2022/08/14 05:53:44;;;;;;;;;;;19.10;97.20;;;;;;5091484;28;19924;-92
2022/08/14 05:56:33;;;;;;;;;;;19.20;97.30;;;;;;5089310;28;19924;-92
2022/08/14 05:59:05;;;;;;;;;;;19.30;97.30;;;;;;5089743;28;19938;-91
2022/08/14 06:01:38;;;;;;;;;;;19.40;97.10;;;;;;5105661;28;19936;-92
2022/08/14 06:04:09;;;;;;;;;;;19.50;97.10;;;;;;5089659;28;19928;-92
2022/08/14 06:06:38;;;;;;;;;;;19.60;97.10;;;;;;5088040;28;19930;-92
2022/08/14 06:09:09;;;;;;;;;;;19.90;97.40;;;;;;5072303;28;19924;-92
2022/08/14 06:11:41;;;;;;;;;;;19.70;97.10;;;;;;5086102;28;19929;-92
2022/08/14 06:14:10;;;;;;;;;;;19.70;97.50;;;;;;5068987;28;19924;-92
2022/08/14 06:16:50;;;;;;;;;;;19.70;97.80;;;;;;5086699;28;19931;-92
2022/08/14 06:19:22;;;;;;;;;;;17.70;96.70;;;;;;5088613;28;19931;-91
2022/08/14 06:22:13;;;;;;;;;;;19.90;97.80;;;;;;5087931;28;19947;-90
2022/08/14 06:24:45;;;;;;;;;;;18.90;96.60;;;;;;5073141;28;19931;-91
2022/08/14 06:27:33;;;;;;;;;;;20.00;97.00;;;;;;5058761;28;19912;-91
2022/08/14 06:30:05;;;;;;;;;;;22.40;97.50;;;;;;5041512;23;19914;-91
2022/08/14 06:33:00;;;;;;;;;;;20.00;97.50;;;;;;4974377;28;20009;-92
2022/08/14 06:35:40;;;;;;;;;;;20.10;97.00;;;;;;5029621;28;19932;-90
2022/08/14 06:38:18;;;;;;;;;;;18.60;96.70;;;;;;4995393;28;19936;-92
2022/08/14 06:40:49;;;;;;;;;;;20.30;97.50;;;;;;5018230;28;19944;-92
2022/08/14 06:43:45;;;;;;;;;;;20.40;96.90;;;;;;4977138;28;19949;-91
2022/08/14 06:46:30;;;;;;;;;;;18.10;96.20;;;;;;5013316;28;19926;-93
2022/08/14 06:49:03;;;;;;;;;;;20.80;96.80;;;;;;4994284;28;19925;-92
2022/08/14 06:51:36;;;;;;;;;;;20.60;97.70;;;;;;5009795;28;19929;-92
2022/08/14 06:54:12;;;;;;;;;;;21.20;97.40;;;;;;4994942;28;19929;-92
2022/08/14 06:56:44;;;;;;;;;;;19.90;96.70;;;;;;4994045;28;19925;-92
2022/08/14 06:59:23;;;;;;;;;;;21.30;96.50;;;;;;4995520;28;20384;-92
2022/08/14 07:07:40;;;;;;;;;;;20.90;97.40;;;;;;5034014;28;19913;-92
2022/08/14 07:10:13;;;;;;;;;;;21.20;96.50;;;;;;5001812;28;19913;-92
2022/08/14 07:12:45;;;;;;;;;;;21.00;96.20;;;;;;5001828;28;19913;-92
2022/08/14 07:15:32;;;;;;;;;;;21.60;96.30;;;;;;5024384;28;19925;-92
2022/08/14 07:18:08;;;;;;;;;;;21.40;96.10;;;;;;4990523;28;20395;-92
2022/08/14 07:20:37;;;;;;;;;;;21.50;96.10;;;;;;5022746;28;19941;-92
2022/08/14 07:23:10;;;;;;;;;;;21.60;96.20;;;;;;4989016;28;19933;-91
2022/08/14 07:25:48;;;;;;;;;;;21.70;96.70;;;;;;5006850;28;19925;-91
2022/08/14 07:28:22;;;;;;;;;;;21.80;95.70;;;;;;5002549;28;19934;-92
2022/08/14 07:30:56;;;;;;;;;;;22.20;96.60;;;;;;4969339;28;19937;-92
2022/08/14 07:33:35;;;;;;;;;;;22.00;96.00;;;;;;4956265;28;19926;-91
2022/08/14 07:36:12;;;;;;;;;;;22.60;96.20;;;;;;4974802;28;19937;-91
2022/08/14 07:39:00;;;;;;;;;;;21.60;95.20;;;;;;4978899;28;20013;-91
2022/08/14 07:41:33;;;;;;;;;;;22.70;95.20;;;;;;4951616;28;19938;-92
2022/08/14 07:44:02;;;;;;;;;;;22.40;95.00;;;;;;4925824;28;19952;-91
2022/08/14 07:46:50;;;;;;;;;;;22.30;96.10;;;;;;4941196;28;19930;-92
2022/08/14 07:49:18;;;;;;;;;;;20.80;95.60;;;;;;4973224;28;19933;-91
2022/08/14 07:51:50;;;;;;;;;;;22.50;94.70;;;;;;4963392;28;20392;-91
2022/08/14 07:54:19;;;;;;;;;;;23.20;96.30;;;;;;4977385;28;19926;-92
2022/08/14 07:56:57;;;;;;;;;;;22.60;95.70;;;;;;4968256;28;19983;-90
2022/08/14 07:59:27;;;;;;;;;;;24.50;94.50;;;;;;4965473;28;19937;-91
2022/08/14 08:02:10;;;;;;;;;;;22.70;94.10;;;;;;4951934;28;19926;-93
2022/08/14 08:04:52;;;;;;;;;;;23.40;94.00;;;;;;4946664;28;20290;-90
2022/08/14 08:07:25;;;;;;;;;;;23.30;92.70;;;;;;4978392;28;19961;-90
2022/08/14 08:09:58;;;;;;;;;;;23.40;92.90;;;;;;4956563;28;20410;-92
2022/08/14 08:12:27;;;;;;;;;;;23.60;92.40;;;;;;4958453;28;19926;-91
2022/08/14 08:14:59;;;;;;;;;;;23.70;92.60;;;;;;4945230;28;19933;-92
2022/08/14 08:17:33;;;;;;;;;;;23.80;92.50;;;;;;4948072;28;19926;-91
2022/08/14 08:20:19;;;;;;;;;;;23.80;92.30;;;;;;4977267;28;19948;-91
2022/08/14 08:22:47;;;;;;;;;;;24.00;92.00;;;;;;4989162;28;19941;-91
2022/08/14 08:25:26;;;;;;;;;;;24.00;92.00;;;;;;4981597;28;20337;-90
2022/08/14 08:27:59;;;;;;;;;;;24.20;91.60;;;;;;4971286;28;19933;-90
2022/08/14 08:30:36;;;;;;;;;;;24.20;91.40;;;;;;4950048;28;19930;-91
2022/08/14 08:33:16;;;;;;;;;;;24.30;91.20;;;;;;4979567;28;20405;-92
2022/08/14 08:35:45;;;;;;;;;;;24.40;90.90;;;;;;4980544;28;19960;-91
2022/08/14 08:38:19;;;;;;;;;;;24.50;90.40;;;;;;4965396;28;20418;-91
2022/08/14 08:41:09;;;;;;;;;;;24.60;90.60;;;;;;4960214;28;20033;-91
2022/08/14 08:43:39;;;;;;;;;;;24.80;90.20;;;;;;4976337;28;20306;-92
2022/08/14 08:46:18;;;;;;;;;;;24.90;90.40;;;;;;4946138;28;19939;-92
2022/08/14 08:48:51;;;;;;;;;;;25.00;88.80;;;;;;4946725;28;20010;-91
2022/08/14 08:51:24;;;;;;;;;;;25.10;88.30;;;;;;4963982;28;19937;-91
2022/08/14 08:54:05;;;;;;;;;;;25.20;88.10;;;;;;4958742;28;19926;-92
2022/08/14 08:56:35;;;;;;;;;;;25.30;88.60;;;;;;4961704;28;19926;-91
2022/08/14 08:59:26;;;;;;;;;;;25.40;87.30;;;;;;4945434;28;19946;-91
2022/08/14 09:02:01;;;;;;;;;;;25.50;87.70;;;;;;4937254;28;19949;-92
2022/08/14 09:04:34;;;;;;;;;;;25.60;86.70;;;;;;4964395;28;20298;-92
2022/08/14 09:07:13;;;;;;;;;;;25.70;85.50;;;;;;4961137;28;19937;-92
2022/08/14 09:09:52;;;;;;;;;;;25.80;85.00;;;;;;4954625;28;19984;-90
2022/08/14 09:12:30;;;;;;;;;;;25.90;85.10;;;;;;4947419;28;19944;-93
2022/08/14 09:15:03;;;;;;;;;;;26.10;85.50;;;;;;4962614;28;19926;-91
2022/08/14 09:17:39;;;;;;;;;;;26.10;84.80;;;;;;4962789;28;19933;-91
2022/08/14 09:20:09;;;;;;;;;;;26.20;83.90;;;;;;4946429;28;19929;-90
2022/08/14 09:22:39;;;;;;;;;;;26.30;83.60;;;;;;4963093;28;19925;-91
2022/08/14 09:25:17;;;;;;;;;;;26.40;83.40;;;;;;4948014;28;20369;-91
2022/08/14 09:27:57;;;;;;;;;;;26.50;82.70;;;;;;4965498;28;20100;-92
2022/08/14 09:30:24;;;;;;;;;;;26.60;81.90;;;;;;5008173;28;19913;-91
2022/08/14 09:33:03;;;;;;;;;;;26.70;82.60;;;;;;5013728;28;19929;-91
2022/08/14 09:36:02;;;;;;;;;;;26.80;81.80;;;;;;4998891;28;19995;-91
2022/08/14 09:38:54;;;;;;;;;;;26.90;80.50;;;;;;4998059;28;19937;-91
2022/08/14 09:41:37;;;;;;;;;;;27.00;81.50;;;;;;4988943;28;20309;-91
2022/08/14 09:44:44;;;;;;;;;;;27.20;79.90;;;;;;4984425;28;19930;-91
2022/08/14 09:47:17;;;;;;;;;;;27.30;80.10;;;;;;5003578;28;19925;-91
2022/08/14 09:50:02;;;;;;;;;;;27.50;79.20;;;;;;5006976;28;19936;-91
2022/08/14 09:52:44;;;;;;;;;;;27.60;79.30;;;;;;5022269;28;19929;-91
2022/08/14 09:55:18;;;;;;;;;;;27.70;77.70;;;;;;4999430;28;19926;-92
2022/08/14 09:57:50;;;;;;;;;;;27.80;78.30;;;;;;4989993;28;19933;-92
2022/08/14 10:00:39;;;;;;;;;;;27.90;77.30;;;;;;4998430;28;19925;-93
2022/08/14 10:03:08;;;;;;;;;;;28.00;78.20;;;;;;4649324;28;10000218;-92
2022/08/14 10:05:37;;;;;;;;;;;28.00;77.40;;;;;;4964401;28;19936;-91
2022/08/14 10:08:15;;;;;;;;;;;28.20;78.20;;;;;;4979306;28;20377;-91
2022/08/14 10:10:51;;;;;;;;;;;28.30;75.70;;;;;;4975776;28;19932;-92
2022/08/14 10:13:28;;;;;;;;;;;28.40;77.20;;;;;;4991660;28;19929;-91
2022/08/14 10:16:09;;;;;;;;;;;28.50;75.80;;;;;;4990988;28;19925;-92
2022/08/14 10:19:09;;;;;;;;;;;28.60;74.50;;;;;;4980140;28;19926;-90
2022/08/14 10:21:42;;;;;;;;;;;28.70;74.00;;;;;;4993551;28;19934;-93
2022/08/14 10:24:40;;;;;;;;;;;28.80;73.40;;;;;;4979315;28;19926;-92
2022/08/14 10:27:17;;;;;;;;;;;29.00;72.70;;;;;;4961418;28;19926;-93
2022/08/14 10:29:53;;;;;;;;;;;29.10;71.70;;;;;;4961276;28;19948;-93
2022/08/14 10:32:21;;;;;;;;;;;29.20;71.70;;;;;;4979748;28;20095;-92
2022/08/14 10:35:11;;;;;;;;;;;29.30;70.80;;;;;;4993715;28;19930;-92
2022/08/14 10:37:46;;;;;;;;;;;29.50;71.70;;;;;;4961714;28;19944;-92
2022/08/14 10:40:16;;;;;;;;;;;29.60;71.10;;;;;;4984206;28;19931;-91
2022/08/14 10:43:14;;;;;;;;;;;29.70;70.90;;;;;;5005220;28;19940;-93
2022/08/14 10:45:52;;;;;;;;;;;29.80;70.80;;;;;;4982128;28;19926;-91
2022/08/14 10:48:40;;;;;;;;;;;29.90;70.60;;;;;;4984112;28;19925;-92
2022/08/14 10:51:22;;;;;;;;;;;30.10;68.50;;;;;;5000072;28;19926;-92
2022/08/14 10:53:54;;;;;;;;;;;30.20;68.10;;;;;;4979638;28;19952;-92
2022/08/14 10:56:34;;;;;;;;;;;30.40;68.40;;;;;;5012843;28;19933;-91
2022/08/14 10:59:05;;;;;;;;;;;30.50;68.50;;;;;;5014330;28;19930;-91
2022/08/14 11:01:35;;;;;;;;;;;30.60;66.90;;;;;;4990801;28;19933;-92
2022/08/14 11:04:27;;;;;;;;;;;30.70;68.00;;;;;;5017248;28;19925;-91
2022/08/14 11:06:58;;;;;;;;;;;30.90;65.10;;;;;;4996931;28;20384;-91
2022/08/14 11:09:25;;;;;;;;;;;31.00;63.50;;;;;;4995117;28;19929;-91
2022/08/14 11:12:02;;;;;;;;;;;31.10;63.00;;;;;;4998092;28;19933;-91
2022/08/14 11:14:52;;;;;;;;;;;31.20;63.60;;;;;;4999538;28;19926;-92
2022/08/14 11:17:27;;;;;;;;;;;31.30;61.50;;;;;;4987532;28;19940;-92
2022/08/14 11:20:00;;;;;;;;;;;31.30;61.30;;;;;;4993708;28;19936;-92
2022/08/14 11:22:30;;;;;;;;;;;31.30;60.30;;;;;;4996451;28;19929;-92
2022/08/14 11:25:19;;;;;;;;;;;31.40;60.00;;;;;;4968893;28;19925;-92
2022/08/14 11:27:48;;;;;;;;;;;31.50;60.20;;;;;;5014234;28;19940;-92
2022/08/14 11:30:18;;;;;;;;;;;31.60;59.00;;;;;;5018004;28;19924;-92
2022/08/14 11:33:06;;;;;;;;;;;31.60;59.20;;;;;;5007619;28;20290;-92
2022/08/14 11:35:36;;;;;;;;;;;31.70;58.00;;;;;;4962866;28;19926;-93
2022/08/14 11:38:16;;;;;;;;;;;31.60;56.60;;;;;;4961933;28;20416;-92
2022/08/14 11:40:45;;;;;;;;;;;31.70;57.10;;;;;;4978610;28;19926;-92
2022/08/14 11:43:15;;;;;;;;;;;31.70;57.10;;;;;;4995536;28;20412;-92
2022/08/14 11:45:44;;;;;;;;;;;31.70;54.90;;;;;;5011557;28;19926;-92
2022/08/14 11:48:24;;;;;;;;;;;31.70;55.50;;;;;;4977712;28;19948;-93
2022/08/14 11:51:13;;;;;;;;;;;31.80;56.20;;;;;;5008283;28;19925;-93
2022/08/14 11:53:49;;;;;;;;;;;31.80;54.50;;;;;;4977710;28;19936;-91
2022/08/14 11:56:17;;;;;;;;;;;31.80;55.10;;;;;;4980441;28;19948;-91
2022/08/14 11:58:52;;;;;;;;;;;31.90;53.60;;;;;;4999589;28;19944;-92
2022/08/14 12:01:27;;;;;;;;;;;31.90;55.10;;;;;;5001680;28;19929;-92
2022/08/14 12:04:16;;;;;;;;;;;32.10;55.80;;;;;;4998919;28;19944;-92
2022/08/14 12:06:59;;;;;;;;;;;32.30;54.20;;;;;;5000786;28;19925;-91
2022/08/14 12:09:35;;;;;;;;;;;32.30;51.80;;;;;;4988260;28;19925;-92
2022/08/14 12:12:13;;;;;;;;;;;32.40;51.10;;;;;;4978314;28;19926;-92
2022/08/14 12:15:00;;;;;;;;;;;32.40;52.40;;;;;;5005801;28;19925;-92
2022/08/14 12:17:30;;;;;;;;;;;32.50;51.70;;;;;;4966583;28;19940;-92
2022/08/14 12:20:14;;;;;;;;;;;32.60;51.60;;;;;;4981562;28;20303;-91
2022/08/14 12:22:56;;;;;;;;;;;32.80;51.70;;;;;;4967492;28;19952;-92
2022/08/14 12:25:26;;;;;;;;;;;33.00;51.00;;;;;;4983220;28;19932;-93
2022/08/14 12:27:56;;;;;;;;;;;33.20;51.50;;;;;;5001983;28;19936;-92
2022/08/14 12:30:35;;;;;;;;;;;33.20;50.50;;;;;;5034552;28;19913;-93
2022/08/14 12:33:24;;;;;;;;;;;33.40;50.50;;;;;;5023790;28;19913;-93
2022/08/14 12:35:59;;;;;;;;;;;33.60;50.20;;;;;;5006428;28;19929;-93
2022/08/14 12:38:36;;;;;;;;;;;33.70;50.00;;;;;;4990038;28;19940;-93
2022/08/14 12:41:08;;;;;;;;;;;33.80;49.00;;;;;;4981706;28;19938;-93
2022/08/14 12:43:46;;;;;;;;;;;33.90;49.90;;;;;;4964447;28;19930;-93
2022/08/14 12:46:25;;;;;;;;;;;34.00;50.30;;;;;;4978402;28;19926;-94
2022/08/14 12:49:07;;;;;;;;;;;34.10;49.10;;;;;;4978861;28;19926;-92
2022/08/14 12:51:35;;;;;;;;;;;33.90;48.80;;;;;;4978087;28;19925;-93
2022/08/14 12:54:13;;;;;;;;;;;34.00;48.70;;;;;;5015471;28;20434;-93
2022/08/14 12:57:07;;;;;;;;;;;34.00;48.80;;;;;;4982103;28;19925;-94
2022/08/14 12:59:38;;;;;;;;;;;33.90;48.30;;;;;;5000943;28;20428;-94
2022/08/14 13:02:22;;;;;;;;;;;33.90;48.80;;;;;;5013457;28;20153;-93
2022/08/14 13:04:54;;;;;;;;;;;33.90;48.50;;;;;;5014264;28;19925;-93
2022/08/14 13:07:28;;;;;;;;;;;33.80;48.10;;;;;;4979734;28;19925;-93
2022/08/14 13:09:59;;;;;;;;;;;33.80;47.70;;;;;;4979956;28;19925;-93
2022/08/14 13:12:48;;;;;;;;;;;33.90;48.60;;;;;;4976985;28;20266;-92
2022/08/14 13:15:37;;;;;;;;;;;33.90;47.60;;;;;;4965406;28;19929;-93
2022/08/14 13:18:07;;;;;;;;;;;34.10;47.10;;;;;;4962081;28;19938;-93
2022/08/14 13:20:34;;;;;;;;;;;34.20;47.20;;;;;;4979062;28;19926;-93
2022/08/14 13:23:02;;;;;;;;;;;34.30;47.60;;;;;;4963565;28;19932;-93
2022/08/14 13:25:30;;;;;;;;;;;34.40;46.60;;;;;;4962486;28;19929;-92
2022/08/14 13:28:01;;;;;;;;;;;34.50;47.30;;;;;;4979383;28;20313;-92
2022/08/14 13:30:31;;;;;;;;;;;34.60;47.50;;;;;;4978174;28;19926;-93
2022/08/14 13:33:00;;;;;;;;;;;34.70;46.30;;;;;;4995920;28;19933;-92
2022/08/14 13:35:27;;;;;;;;;;;34.80;47.70;;;;;;4996257;28;19926;-92
2022/08/14 13:37:57;;;;;;;;;;;34.80;46.40;;;;;;5021479;28;20011;-92
2022/08/14 13:40:28;;;;;;;;;;;35.00;45.80;;;;;;4985284;28;19937;-92
2022/08/14 13:42:56;;;;;;;;;;;35.10;47.00;;;;;;4997248;28;19926;-92
2022/08/14 13:45:25;;;;;;;;;;;35.40;46.80;;;;;;4998273;28;19925;-92
2022/08/14 13:48:00;;;;;;;;;;;35.60;46.30;;;;;;4983292;28;19933;-94
2022/08/14 13:50:29;;;;;;;;;;;35.90;45.50;;;;;;5015649;28;19932;-92
2022/08/14 13:52:57;;;;;;;;;;;36.10;45.10;;;;;;4998938;28;19925;-93
2022/08/14 13:55:28;;;;;;;;;;;36.30;46.20;;;;;;4981692;28;19925;-92
2022/08/14 13:58:00;;;;;;;;;;;36.60;44.70;;;;;;4997481;28;20313;-92
2022/08/14 14:00:32;;;;;;;;;;;36.70;44.60;;;;;;5019597;28;19914;-92
2022/08/14 14:03:19;;;;;;;;;;;36.80;43.80;;;;;;4989066;28;19930;-94
2022/08/14 14:05:53;;;;;;;;;;;37.00;43.40;;;;;;4999948;28;19933;-93
2022/08/14 14:08:23;;;;;;;;;;;37.20;43.50;;;;;;4987371;28;20342;-90
2022/08/14 14:11:12;;;;;;;;;;;37.40;42.20;;;;;;5010823;28;19936;-92
2022/08/14 14:13:43;;;;;;;;;;;37.50;42.80;;;;;;5003248;28;19932;-90
2022/08/14 14:16:13;;;;;;;;;;;37.50;43.10;;;;;;4988983;28;19933;-90
2022/08/14 14:19:01;;;;;;;;;;;37.60;42.60;;;;;;4967975;28;19956;-91
2022/08/14 14:21:36;;;;;;;;;;;37.60;41.80;;;;;;4980065;28;19929;-91
2022/08/14 14:24:06;;;;;;;;;;;37.50;42.00;;;;;;4981765;28;19925;-90
2022/08/14 14:26:45;;;;;;;;;;;37.50;42.50;;;;;;4980473;28;19933;-93
2022/08/14 14:29:14;;;;;;;;;;;37.60;42.30;;;;;;5013971;28;19933;-93
2022/08/14 14:31:45;;;;;;;;;;;37.70;42.00;;;;;;5017484;28;19926;-91
2022/08/14 14:34:17;;;;;;;;;;;37.80;41.80;;;;;;4999705;28;19932;-93
2022/08/14 14:37:01;;;;;;;;;;;37.80;42.50;;;;;;5019913;28;19932;-92
2022/08/14 14:39:30;;;;;;;;;;;37.90;42.60;;;;;;4998339;28;19926;-93
2022/08/14 14:42:04;;;;;;;;;;;37.90;42.10;;;;;;5015064;28;19926;-94
2022/08/14 14:44:34;;;;;;;;;;;37.90;42.30;;;;;;5001660;28;19937;-92
2022/08/14 14:47:01;;;;;;;;;;;37.70;42.70;;;;;;5032717;28;19926;-94
2022/08/14 14:49:34;;;;;;;;;;;37.60;42.80;;;;;;4985047;28;19926;-93
2022/08/14 14:52:22;;;;;;;;;;;37.50;42.80;;;;;;5033924;28;19913;-94
2022/08/14 14:54:56;;;;;;;;;;;37.40;43.10;;;;;;5001353;28;19914;-91
2022/08/14 14:57:28;;;;;;;;;;;37.20;43.50;;;;;;5015293;28;19925;-93
2022/08/14 15:00:07;;;;;;;;;;;37.20;43.10;;;;;;5014482;28;19914;-94
2022/08/14 15:02:43;;;;;;;;;;;37.30;43.00;;;;;;5002791;28;19926;-93
2022/08/14 15:05:14;;;;;;;;;;;37.40;43.10;;;;;;4986295;28;19933;-92
2022/08/14 15:07:43;;;;;;;;;;;37.50;43.20;;;;;;4964515;28;19926;-92
2022/08/14 15:10:16;;;;;;;;;;;37.40;43.50;;;;;;4985785;28;19980;-93
2022/08/14 15:12:58;;;;;;;;;;;37.20;43.90;;;;;;5008946;28;19932;-91
2022/08/14 15:15:31;;;;;;;;;;;36.90;44.00;;;;;;4997684;28;19925;-92
2022/08/14 15:18:00;;;;;;;;;;;36.70;44.00;;;;;;4980061;28;19926;-93
2022/08/14 15:20:28;;;;;;;;;;;36.60;44.40;;;;;;4997924;28;19926;-92
2022/08/14 15:22:59;;;;;;;;;;;36.70;44.10;;;;;;4983346;28;19934;-92
2022/08/14 15:25:39;;;;;;;;;;;37.00;44.00;;;;;;4974399;28;20314;-92
2022/08/14 15:28:10;;;;;;;;;;;37.10;44.30;;;;;;4961480;28;19930;-92
2022/08/14 15:30:40;;;;;;;;;;;37.20;43.90;;;;;;4991580;28;19913;-93
2022/08/14 15:33:08;;;;;;;;;;;37.30;44.10;;;;;;4977678;28;19924;-92